createdAt,value
2022-10-09T05:01:50.065Z,69.90
2022-10-09T05:06:53.771Z,69.80
2022-10-09T05:11:57.357Z,69.90
2022-10-09T05:17:23.236Z,70.20
2022-10-09T05:22:27.267Z,70.20
2022-10-09T05:27:30.952Z,70.30
2022-10-09T05:32:35.983Z,70.20
2022-10-09T05:37:39.623Z,70.30
2022-10-09T05:42:43.181Z,70.20
2022-10-09T05:47:48.172Z,70.20
2022-10-09T05:52:51.990Z,70.80
2022-10-09T05:57:55.728Z,70.40
2022-10-09T06:03:00.673Z,70.40
2022-10-09T06:08:04.319Z,70.40
2022-10-09T06:13:07.923Z,70.50
2022-10-09T06:18:12.867Z,70.60
2022-10-09T06:23:16.422Z,70.90
2022-10-09T06:28:20.222Z,71.10
2022-10-09T06:33:25.200Z,71.20
2022-10-09T06:38:28.951Z,71.00
2022-10-09T06:43:32.703Z,70.90
2022-10-09T06:48:39.020Z,71.50
2022-10-09T06:53:44.512Z,70.70
2022-10-09T06:58:48.635Z,70.80
2022-10-09T07:03:57.460Z,71.10
2022-10-09T07:09:05.099Z,71.00
2022-10-09T07:14:10.041Z,71.00
2022-10-09T07:19:17.493Z,70.70
2022-10-09T07:24:21.430Z,70.80
2022-10-09T07:29:25.047Z,70.80
2022-10-09T07:34:30.035Z,70.70
2022-10-09T07:39:34.977Z,70.60
2022-10-09T07:44:38.549Z,70.50
2022-10-09T07:49:43.644Z,70.70
2022-10-09T07:54:47.237Z,70.60
2022-10-09T07:59:50.880Z,70.60
2022-10-09T08:04:55.823Z,70.50
2022-10-09T08:09:59.569Z,70.50
2022-10-09T08:15:03.193Z,70.20
2022-10-09T08:20:09.671Z,69.80
2022-10-09T08:25:13.555Z,69.60
2022-10-09T08:30:17.346Z,69.60
2022-10-09T08:35:22.367Z,69.40
2022-10-09T08:40:36.568Z,69.30
2022-10-09T08:45:41.599Z,68.90
2022-10-09T08:50:50.798Z,68.50
2022-10-09T08:55:57.256Z,68.00
2022-10-09T09:01:06.154Z,67.30
2022-10-09T09:06:16.020Z,66.40
2022-10-09T09:11:29.689Z,64.90
2022-10-09T09:16:42.360Z,63.80
2022-10-09T09:21:51.222Z,62.60
2022-10-09T09:27:00.463Z,61.20
2022-10-09T09:32:04.354Z,60.00
2022-10-09T09:37:12.196Z,59.20
2022-10-09T09:42:18.119Z,58.30
2022-10-09T09:47:26.514Z,57.70
2022-10-09T09:52:35.638Z,57.10
2022-10-09T09:57:44.450Z,55.90
2022-10-09T10:02:48.357Z,55.60
2022-10-09T10:07:53.603Z,54.90
2022-10-09T10:12:59.250Z,54.40
2022-10-09T10:18:06.266Z,53.80
2022-10-09T10:23:35.649Z,52.80
2022-10-09T10:28:50.028Z,52.50
2022-10-09T10:33:57.573Z,52.10
2022-10-09T10:39:12.249Z,51.70
2022-10-09T10:44:23.066Z,51.00
2022-10-09T10:49:31.673Z,50.50
2022-10-09T10:54:42.005Z,50.90
2022-10-09T10:59:58.081Z,50.70
2022-10-09T11:05:14.642Z,49.90
2022-10-09T11:10:29.110Z,49.20
2022-10-09T11:15:37.895Z,48.50
2022-10-09T11:21:01.325Z,48.40
2022-10-09T11:26:16.305Z,47.90
2022-10-09T11:31:24.020Z,47.20
2022-10-09T11:36:34.206Z,47.00
2022-10-09T11:41:40.124Z,47.00
2022-10-09T11:46:50.142Z,47.00
2022-10-09T11:52:01.128Z,46.70
2022-10-09T11:57:08.041Z,46.30
2022-10-09T12:02:26.384Z,46.00
2022-10-09T12:07:33.359Z,45.80
2022-10-09T12:12:38.963Z,45.40
2022-10-09T12:17:49.842Z,44.80
2022-10-09T12:23:24.737Z,44.50
2022-10-09T12:28:29.115Z,44.90
2022-10-09T12:33:37.905Z,44.60
2022-10-09T12:38:42.178Z,44.20
2022-10-09T12:43:47.928Z,43.80
2022-10-09T12:48:51.985Z,43.30
2022-10-09T12:53:56.012Z,43.20
2022-10-09T12:59:02.466Z,43.10
2022-10-09T13:04:08.421Z,43.10
2022-10-09T13:09:22.530Z,42.40
2022-10-09T13:14:34.166Z,42.50
2022-10-09T13:19:37.839Z,42.30
2022-10-09T13:24:41.696Z,41.60
2022-10-09T13:29:47.256Z,42.00
2022-10-09T13:34:53.669Z,41.80
2022-10-09T13:39:59.683Z,41.80
2022-10-09T13:45:04.916Z,41.80
2022-10-09T13:50:09.197Z,42.10
2022-10-09T13:55:12.664Z,42.40
2022-10-09T14:00:18.125Z,42.40
2022-10-09T14:05:22.706Z,42.60
2022-10-09T14:10:26.816Z,42.70
2022-10-09T14:15:31.898Z,43.00
2022-10-09T14:20:36.026Z,43.30
2022-10-09T14:25:39.608Z,43.50
2022-10-09T14:30:45.460Z,43.40
2022-10-09T14:35:49.098Z,43.00
2022-10-09T14:40:52.698Z,42.70
2022-10-09T14:46:05.254Z,42.70
2022-10-09T14:51:12.119Z,42.50
2022-10-09T14:56:17.760Z,42.30
2022-10-09T15:01:23.847Z,42.20
2022-10-09T15:06:28.185Z,42.30
2022-10-09T15:11:31.519Z,42.30
2022-10-09T15:16:36.553Z,42.40
2022-10-09T15:21:40.230Z,42.70
2022-10-09T15:26:43.782Z,43.00
2022-10-09T15:31:51.478Z,43.10
2022-10-09T15:36:55.021Z,43.40
2022-10-09T15:41:58.661Z,43.40
2022-10-09T15:47:03.752Z,43.50
2022-10-09T15:52:07.357Z,43.80
2022-10-09T15:57:10.937Z,43.90
2022-10-09T16:02:15.897Z,44.00
2022-10-09T16:07:19.431Z,44.20
2022-10-09T16:12:22.985Z,44.30
2022-10-09T16:17:27.913Z,44.40
2022-10-09T16:22:31.651Z,44.50
2022-10-09T16:27:35.571Z,44.60
2022-10-09T16:32:40.691Z,44.60
2022-10-09T16:37:44.447Z,44.80
2022-10-09T16:42:48.355Z,44.80
2022-10-09T16:47:55.517Z,45.00
2022-10-09T16:52:59.253Z,45.20
2022-10-09T16:58:02.856Z,46.00
2022-10-09T17:03:07.852Z,45.90
2022-10-09T17:08:11.400Z,46.30
2022-10-09T17:13:15.109Z,46.60
2022-10-09T17:18:21.111Z,47.00
2022-10-09T17:23:24.736Z,47.40
2022-10-09T17:28:28.353Z,47.80
2022-10-09T17:33:33.431Z,48.30
2022-10-09T17:38:37.555Z,48.60
2022-10-09T17:43:42.000Z,49.20
2022-10-09T17:48:52.763Z,49.80
2022-10-09T17:54:01.148Z,50.50
2022-10-09T17:59:05.281Z,51.10
2022-10-09T18:04:14.958Z,51.60
2022-10-09T18:09:18.614Z,52.00
2022-10-09T18:14:22.224Z,52.40
2022-10-09T18:19:27.145Z,52.70
2022-10-09T18:24:30.756Z,53.10
2022-10-09T18:29:34.903Z,53.40
2022-10-09T18:34:41.379Z,53.90
2022-10-09T18:39:46.869Z,54.20
2022-10-09T18:44:50.579Z,54.60
2022-10-09T18:49:59.796Z,54.90
2022-10-09T18:55:05.008Z,55.20
2022-10-09T19:00:09.690Z,55.60
2022-10-09T19:05:14.675Z,55.90
2022-10-09T19:10:18.362Z,56.30
2022-10-09T19:15:22.430Z,56.70
2022-10-09T19:20:29.060Z,57.10
2022-10-09T19:25:32.680Z,57.30
2022-10-09T19:30:36.227Z,57.60
2022-10-09T19:35:48.274Z,58.00
2022-10-09T19:40:52.043Z,58.40
2022-10-09T19:46:03.158Z,58.70
2022-10-09T19:51:10.013Z,59.20
2022-10-09T19:56:15.079Z,59.50
2022-10-09T20:01:21.388Z,59.80
2022-10-09T20:06:26.847Z,60.10
2022-10-09T20:11:30.488Z,60.40
2022-10-09T20:16:34.443Z,60.70
2022-10-09T20:21:39.631Z,60.90
2022-10-09T20:26:43.481Z,61.00
2022-10-09T20:31:48.784Z,61.40
2022-10-09T20:36:54.124Z,61.90
2022-10-09T20:41:57.748Z,62.10
2022-10-09T20:47:01.459Z,62.30
2022-10-09T20:52:06.473Z,62.40
2022-10-09T20:57:10.103Z,62.50
2022-10-09T21:02:15.007Z,62.70
2022-10-09T21:07:19.916Z,62.80
2022-10-09T21:12:23.480Z,63.20
2022-10-09T21:17:27.144Z,63.50
2022-10-09T21:22:32.105Z,63.60
2022-10-09T21:27:35.678Z,63.60
2022-10-09T21:32:39.196Z,63.80
2022-10-09T21:37:44.177Z,64.10
2022-10-09T21:42:47.938Z,64.40
2022-10-09T21:47:51.693Z,64.50
2022-10-09T21:52:56.716Z,64.80
2022-10-09T21:58:00.330Z,65.10
2022-10-09T22:03:04.078Z,65.30
2022-10-09T22:08:09.072Z,65.90
2022-10-09T22:13:12.687Z,66.70
2022-10-09T22:18:16.520Z,66.90
2022-10-09T22:23:22.500Z,66.90
2022-10-09T22:28:26.350Z,66.80
